createdAt,value
2019-04-01T00:01:09.663Z,31.25
2019-04-01T00:03:38.967Z,29.23
2019-04-01T00:06:08.384Z,30.00
2019-04-01T00:08:37.608Z,30.90
2019-04-01T00:11:06.776Z,31.68
2019-04-01T00:13:35.933Z,32.83
2019-04-01T00:16:05.106Z,31.65
2019-04-01T00:18:34.269Z,32.75
2019-04-01T00:21:03.549Z,31.25
2019-04-01T00:23:32.680Z,29.55
2019-04-01T00:26:01.848Z,32.00
2019-04-01T00:28:31.112Z,29.12
2019-04-01T00:31:00.270Z,32.40
2019-04-01T00:33:29.473Z,30.48
2019-04-01T00:35:58.648Z,31.55
2019-04-01T00:38:28.230Z,28.83
2019-04-01T00:40:58.596Z,29.70
2019-04-01T00:43:45.985Z,28.05
2019-04-01T00:46:16.789Z,29.15
2019-04-01T00:48:46.036Z,31.55
2019-04-01T00:51:15.319Z,28.92
2019-04-01T00:53:44.483Z,29.00
2019-04-01T00:56:13.745Z,27.67
2019-04-01T00:58:42.919Z,29.23
2019-04-01T01:01:13.595Z,31.10
2019-04-01T01:03:42.757Z,28.15
2019-04-01T01:06:11.932Z,30.90
2019-04-01T01:08:41.197Z,29.75
2019-04-01T01:11:10.353Z,27.50
2019-04-01T01:13:39.535Z,29.23
2019-04-01T01:16:08.691Z,31.52
2019-04-01T01:18:37.876Z,32.42
2019-04-01T01:21:07.066Z,28.55
2019-04-01T01:23:36.217Z,32.35
2019-04-01T01:26:05.403Z,29.15
2019-04-01T01:28:34.555Z,27.93
2019-04-01T01:31:03.722Z,30.23
2019-04-01T01:33:32.888Z,31.35
2019-04-01T01:36:02.046Z,32.70
2019-04-01T01:38:31.245Z,32.42
2019-04-01T01:41:00.524Z,33.90
2019-04-01T01:43:29.689Z,30.92
2019-04-01T01:45:58.936Z,32.03
2019-04-01T01:48:28.113Z,29.70
2019-04-01T01:50:57.287Z,32.63
2019-04-01T01:53:28.145Z,31.30
2019-04-01T01:55:57.419Z,31.12
2019-04-01T01:58:26.628Z,34.20
2019-04-01T02:00:57.288Z,33.98
2019-04-01T02:03:26.457Z,34.43
2019-04-01T02:05:55.692Z,33.75
2019-04-01T02:08:24.853Z,36.30
2019-04-01T02:10:54.013Z,33.05
2019-04-01T02:13:23.254Z,35.03
2019-04-01T02:15:52.468Z,35.68
2019-04-01T02:18:21.674Z,35.65
2019-04-01T02:20:50.871Z,34.43
2019-04-01T02:23:20.055Z,35.45
2019-04-01T02:25:49.296Z,36.73
2019-04-01T02:28:18.522Z,38.05
2019-04-01T02:30:47.751Z,37.28
2019-04-01T02:33:16.908Z,36.53
2019-04-01T02:35:46.207Z,38.58
2019-04-01T02:38:15.373Z,38.73
2019-04-01T02:40:44.563Z,40.17
2019-04-01T02:43:13.792Z,41.48
2019-04-01T02:45:43.033Z,42.65
2019-04-01T02:48:12.175Z,44.38
2019-04-01T02:50:41.333Z,43.48
2019-04-01T02:53:10.504Z,40.95
2019-04-01T02:55:39.659Z,44.55
2019-04-01T02:58:08.812Z,44.58
2019-04-01T03:00:37.980Z,44.90
2019-04-01T03:03:07.183Z,43.28
2019-04-01T03:05:36.401Z,44.58
2019-04-01T03:08:05.551Z,44.35
2019-04-01T03:10:34.885Z,46.15
2019-04-01T03:13:04.042Z,45.08
2019-04-01T03:15:33.306Z,49.38
2019-04-01T03:18:02.536Z,48.50
2019-04-01T03:20:31.718Z,48.78
2019-04-01T03:23:00.957Z,51.42
2019-04-01T03:25:30.111Z,52.62
2019-04-01T03:27:59.286Z,53.73
2019-04-01T03:30:28.505Z,54.75
2019-04-01T03:32:57.754Z,51.65
2019-04-01T03:35:28.411Z,57.85
2019-04-01T03:37:57.696Z,54.65
2019-04-01T03:40:26.949Z,58.35
2019-04-01T03:42:56.187Z,56.95
2019-04-01T03:45:25.341Z,57.90
2019-04-01T03:47:54.542Z,63.68
2019-04-01T03:50:23.728Z,57.73
2019-04-01T03:52:52.896Z,60.38
2019-04-01T03:55:22.069Z,60.38
2019-04-01T03:57:51.317Z,62.80
2019-04-01T04:00:20.590Z,62.43
2019-04-01T04:02:49.856Z,66.87
2019-04-01T04:05:19.003Z,63.85
2019-04-01T04:07:48.272Z,68.67
2019-04-01T04:10:17.447Z,65.78
2019-04-01T04:12:46.695Z,70.52
2019-04-01T04:15:15.848Z,75.70
2019-04-01T04:17:45.146Z,73.67
2019-04-01T04:20:14.327Z,71.40
2019-04-01T04:22:43.501Z,69.32
2019-04-01T04:25:12.786Z,69.45
2019-04-01T04:27:41.979Z,67.72
2019-04-01T04:30:11.145Z,66.53
2019-04-01T04:32:40.307Z,70.90
2019-04-01T04:35:09.499Z,70.92
2019-04-01T04:37:38.734Z,73.87
2019-04-01T04:40:07.903Z,71.97
2019-04-01T04:42:37.063Z,77.53
2019-04-01T04:45:06.985Z,73.33
2019-04-01T04:47:38.034Z,81.35
2019-04-01T04:50:07.570Z,75.83
2019-04-01T04:52:36.833Z,68.97
2019-04-01T04:55:06.233Z,76.02
2019-04-01T04:57:36.487Z,78.78
2019-04-01T05:00:07.401Z,72.97
2019-04-01T05:02:36.796Z,72.05
2019-04-01T05:05:06.537Z,70.12
2019-04-01T05:07:35.738Z,68.45
2019-04-01T05:10:07.096Z,64.95
2019-04-01T05:12:36.292Z,66.90
2019-04-01T05:15:07.084Z,67.92
2019-04-01T05:17:36.279Z,64.90
2019-04-01T05:20:05.662Z,66.72
2019-04-01T05:22:34.895Z,61.73
2019-04-01T05:25:04.789Z,66.57
2019-04-01T05:27:33.956Z,69.07
2019-04-01T05:30:04.302Z,63.98
2019-04-01T05:32:33.826Z,64.50
2019-04-01T05:35:03.835Z,62.70
2019-04-01T05:37:33.091Z,70.22
2019-04-01T05:40:02.836Z,62.45
2019-04-01T05:42:32.058Z,69.17
2019-04-01T05:45:01.288Z,62.80
2019-04-01T05:47:32.146Z,64.53
2019-04-01T05:50:01.363Z,65.32
2019-04-01T05:52:30.540Z,73.15
2019-04-01T05:54:59.699Z,64.10
2019-04-01T05:57:29.001Z,57.73
2019-04-01T05:59:58.193Z,57.20
2019-04-01T06:02:27.421Z,57.03
2019-04-01T06:04:56.647Z,59.55
2019-04-01T06:07:25.905Z,63.17
2019-04-01T06:09:55.092Z,60.40
2019-04-01T06:12:24.434Z,64.07
2019-04-01T06:14:53.668Z,58.30
2019-04-01T06:17:22.863Z,59.73
2019-04-01T06:19:52.187Z,65.10
2019-04-01T06:22:21.346Z,61.42
2019-04-01T06:24:50.518Z,61.35
2019-04-01T06:27:19.677Z,60.33
2019-04-01T06:29:48.865Z,63.63
2019-04-01T06:32:18.005Z,59.95
2019-04-01T06:34:53.055Z,61.30
2019-04-01T06:37:18.129Z,61.83
2019-04-01T06:39:47.327Z,59.63
2019-04-01T06:42:16.574Z,61.65
2019-04-01T06:44:45.857Z,58.78
2019-04-01T06:47:15.071Z,61.55
2019-04-01T06:49:44.225Z,61.60
2019-04-01T06:52:13.474Z,63.58
2019-04-01T06:54:42.708Z,63.60
2019-04-01T06:57:11.876Z,59.63
2019-04-01T06:59:41.179Z,61.65
2019-04-01T07:02:10.408Z,60.05
2019-04-01T07:04:39.638Z,61.60
2019-04-01T07:07:18.774Z,59.05
2019-04-01T07:09:39.764Z,57.10
2019-04-01T07:12:09.073Z,57.30
2019-04-01T07:17:20.303Z,57.62
2019-04-01T07:19:49.518Z,61.13
2019-04-01T07:22:18.775Z,61.92
2019-04-01T07:24:47.978Z,62.55
2019-04-01T07:27:17.198Z,65.42
2019-04-01T07:29:46.386Z,64.90
2019-04-01T07:32:15.560Z,57.73
2019-04-01T07:34:44.732Z,53.23
2019-04-01T07:37:13.893Z,57.55
2019-04-01T07:39:43.213Z,59.27
2019-04-01T07:42:12.433Z,52.70
2019-04-01T07:44:43.132Z,54.33
2019-04-01T07:47:12.311Z,55.98
2019-04-01T07:49:41.706Z,55.05
2019-04-01T07:52:11.034Z,51.42
2019-04-01T07:54:40.197Z,50.20
2019-04-01T07:57:09.404Z,48.78
2019-04-01T07:59:38.586Z,53.85
2019-04-01T08:02:07.806Z,48.80
2019-04-01T08:04:37.186Z,48.80
2019-04-01T08:07:06.356Z,48.87
2019-04-01T08:09:35.530Z,48.38
2019-04-01T08:12:04.766Z,47.05
2019-04-01T08:14:33.946Z,46.20
2019-04-01T08:17:03.107Z,44.88
2019-04-01T08:19:32.273Z,46.55
2019-04-01T08:22:01.459Z,43.00
2019-04-01T08:24:30.725Z,46.13
2019-04-01T08:26:59.933Z,44.67
2019-04-01T08:29:30.414Z,41.28
2019-04-01T08:31:59.984Z,44.03
2019-04-01T08:34:29.150Z,39.90
2019-04-01T08:36:58.322Z,41.88
2019-04-01T08:39:27.517Z,42.10
2019-04-01T08:41:56.744Z,39.45
2019-04-01T08:44:26.027Z,37.45
2019-04-01T08:46:55.527Z,39.20
2019-04-01T08:49:24.706Z,37.67
2019-04-01T08:51:54.154Z,41.53
2019-04-01T08:54:23.458Z,37.20
2019-04-01T08:56:52.800Z,37.00
2019-04-01T08:59:22.109Z,38.40
2019-04-01T09:01:51.329Z,39.27
2019-04-01T09:04:20.652Z,39.15
2019-04-01T09:06:49.914Z,37.30
2019-04-01T09:09:19.217Z,40.58
2019-04-01T09:11:48.510Z,41.70
2019-04-01T09:14:17.724Z,40.95
2019-04-01T09:16:46.884Z,43.05
2019-04-01T09:19:16.063Z,36.60
2019-04-01T09:21:45.247Z,36.40
2019-04-01T09:24:15.558Z,37.83
2019-04-01T09:26:44.729Z,35.83
2019-04-01T09:29:14.873Z,34.27
2019-04-01T09:31:44.038Z,43.23
2019-04-01T09:34:13.225Z,35.65
2019-04-01T09:36:42.471Z,36.25
2019-04-01T09:39:11.672Z,35.30
2019-04-01T09:42:00.306Z,35.30
2019-04-01T09:44:36.828Z,35.08
2019-04-01T09:47:00.343Z,37.88
2019-04-01T09:49:29.509Z,37.20
2019-04-01T09:51:58.676Z,36.33
2019-04-01T09:54:27.857Z,36.45
2019-04-01T09:56:57.219Z,33.40
2019-04-01T09:59:26.395Z,40.48
2019-04-01T10:01:55.679Z,35.73
2019-04-01T10:04:24.842Z,34.55
2019-04-01T10:06:54.018Z,35.78
2019-04-01T10:09:23.177Z,36.63
2019-04-01T10:11:52.425Z,34.30
2019-04-01T10:14:23.408Z,36.05
2019-04-01T10:16:52.605Z,32.65
2019-04-01T10:19:21.780Z,35.55
2019-04-01T10:21:51.083Z,36.68
2019-04-01T10:24:20.266Z,44.33
2019-04-01T10:26:49.461Z,35.92
2019-04-01T10:29:18.623Z,34.90
2019-04-01T10:31:47.874Z,35.33
2019-04-01T10:34:17.187Z,36.10
2019-04-01T10:36:46.403Z,33.00
2019-04-01T10:39:15.563Z,35.52
2019-04-01T10:41:44.791Z,36.88
2019-04-01T10:44:13.971Z,38.58
2019-04-01T10:46:43.186Z,40.48
2019-04-01T10:49:12.481Z,38.88
2019-04-01T10:51:41.756Z,35.73
2019-04-01T10:54:13.716Z,33.20
2019-04-01T10:56:42.965Z,34.48
2019-04-01T10:59:13.011Z,35.25
2019-04-01T11:01:43.470Z,34.60
2019-04-01T11:04:12.830Z,37.10
2019-04-01T11:06:42.072Z,34.38
2019-04-01T11:09:11.699Z,35.33
2019-04-01T11:11:40.962Z,33.40
2019-04-01T11:14:10.239Z,34.88
2019-04-01T11:16:39.424Z,33.95
2019-04-01T11:19:10.122Z,32.45
2019-04-01T11:21:39.722Z,34.25
2019-04-01T11:24:09.004Z,32.83
2019-04-01T11:26:38.285Z,36.58
2019-04-01T11:29:07.466Z,34.50
2019-04-01T11:31:36.683Z,34.98
2019-04-01T11:34:06.009Z,32.58
2019-04-01T11:36:35.370Z,31.45
2019-04-01T11:39:06.507Z,33.25
2019-04-01T11:41:35.750Z,34.20
2019-04-01T11:44:05.025Z,35.20
2019-04-01T11:46:34.279Z,32.08
2019-04-01T11:49:03.520Z,32.05
2019-04-01T11:51:38.579Z,32.93
2019-04-01T11:54:03.629Z,31.55
2019-04-01T11:56:33.921Z,38.38
2019-04-01T11:59:10.957Z,32.25
2019-04-01T12:01:40.837Z,32.00
2019-04-01T12:04:10.069Z,29.30
2019-04-01T12:06:39.316Z,32.95
2019-04-01T12:09:08.885Z,29.55
2019-04-01T12:11:38.088Z,29.42
2019-04-01T12:14:07.352Z,31.27
2019-04-01T12:16:36.588Z,30.88
2019-04-01T12:19:05.916Z,29.87
2019-04-01T12:21:35.083Z,29.35
2019-04-01T12:24:04.303Z,28.60
2019-04-01T12:26:33.476Z,28.95
2019-04-01T12:29:02.717Z,30.02
2019-04-01T12:31:31.970Z,29.57
2019-04-01T12:34:01.183Z,28.07
2019-04-01T12:36:31.488Z,27.00
2019-04-01T12:39:00.854Z,28.73
2019-04-01T12:41:31.711Z,27.27
2019-04-01T12:44:00.892Z,29.85
2019-04-01T12:46:30.117Z,30.80
2019-04-01T12:48:59.362Z,29.32
2019-04-01T12:51:28.732Z,28.62
2019-04-01T12:53:57.908Z,27.95
2019-04-01T12:56:27.141Z,27.27
2019-04-01T12:58:56.295Z,30.60
2019-04-01T13:01:25.575Z,30.60
2019-04-01T13:03:54.733Z,27.15
2019-04-01T13:06:23.909Z,29.67
2019-04-01T13:08:53.757Z,29.10
2019-04-01T13:11:23.239Z,27.90
2019-04-01T13:13:52.391Z,28.67
2019-04-01T13:16:21.597Z,27.52
2019-04-01T13:18:51.922Z,33.40
2019-04-01T13:21:21.267Z,28.55
2019-04-01T13:23:50.460Z,26.35
2019-04-01T13:26:19.796Z,25.17
2019-04-01T13:28:48.992Z,27.70
2019-04-01T13:31:18.327Z,27.32
2019-04-01T13:33:47.560Z,26.48
2019-04-01T13:36:16.762Z,27.37
2019-04-01T13:38:46.028Z,30.48
2019-04-01T13:41:15.766Z,26.90
2019-04-01T13:43:45.492Z,26.37
2019-04-01T13:46:14.853Z,27.35
2019-04-01T13:48:57.111Z,27.50
2019-04-01T13:51:14.976Z,28.00
2019-04-01T13:53:44.186Z,28.67
2019-04-01T13:56:13.374Z,28.30
2019-04-01T13:58:42.571Z,28.47
2019-04-01T14:01:11.824Z,27.87
2019-04-01T14:03:41.229Z,26.55
2019-04-01T14:06:10.509Z,26.93
2019-04-01T14:08:39.797Z,26.42
2019-04-01T14:11:09.031Z,24.82
2019-04-01T14:13:38.294Z,25.97
2019-04-01T14:16:09.126Z,27.67
2019-04-01T14:18:38.509Z,26.15
2019-04-01T14:21:15.929Z,28.60
2019-04-01T14:23:38.602Z,27.80
2019-04-01T14:26:07.807Z,26.70
2019-04-01T14:28:38.210Z,27.42
2019-04-01T14:31:07.582Z,25.37
2019-04-01T14:33:36.838Z,27.62
2019-04-01T14:36:06.053Z,29.55
2019-04-01T14:38:35.224Z,26.42
2019-04-01T14:41:04.442Z,25.70
2019-04-01T14:43:33.622Z,26.35
2019-04-01T14:46:02.797Z,28.62
2019-04-01T14:48:31.971Z,25.15
2019-04-01T14:51:01.161Z,26.73
2019-04-01T14:53:30.396Z,24.25
2019-04-01T14:55:59.714Z,24.87
2019-04-01T14:58:29.967Z,27.45
2019-04-01T15:00:59.154Z,28.52
2019-04-01T15:03:28.385Z,25.08
2019-04-01T15:05:57.567Z,27.17
2019-04-01T15:08:26.765Z,26.27
2019-04-01T15:10:55.947Z,30.55
2019-04-01T15:13:25.174Z,29.32
2019-04-01T15:15:54.341Z,25.60
2019-04-01T15:18:23.518Z,29.35
2019-04-01T15:20:52.713Z,29.72
2019-04-01T15:23:24.890Z,28.60
2019-04-01T15:25:54.516Z,29.80
2019-04-01T15:28:23.691Z,26.97
2019-04-01T15:30:52.862Z,28.75
2019-04-01T15:33:22.133Z,28.27
2019-04-01T15:35:51.374Z,27.40
2019-04-01T15:38:22.080Z,28.05
2019-04-01T15:40:51.385Z,27.27
2019-04-01T15:43:20.543Z,29.70
2019-04-01T15:45:49.773Z,27.07
2019-04-01T15:48:18.988Z,29.50
2019-04-01T15:50:48.235Z,30.62
2019-04-01T15:53:18.496Z,29.57
2019-04-01T15:55:47.661Z,31.27
2019-04-01T15:58:16.821Z,29.05
2019-04-01T16:00:45.994Z,30.52
2019-04-01T16:03:15.154Z,32.58
2019-04-01T16:05:44.330Z,28.47
2019-04-01T16:08:14.679Z,30.97
2019-04-01T16:10:43.867Z,30.30
2019-04-01T16:13:14.176Z,27.22
2019-04-01T16:15:44.568Z,30.88
2019-04-01T16:18:13.714Z,28.73
2019-04-01T16:20:42.937Z,30.55
2019-04-01T16:23:12.144Z,29.23
2019-04-01T16:25:41.370Z,26.45
2019-04-01T16:28:10.616Z,29.02
2019-04-01T16:30:39.894Z,26.97
2019-04-01T16:33:09.076Z,32.30
2019-04-01T16:35:38.333Z,26.60
2019-04-01T16:38:07.564Z,30.27
2019-04-01T16:40:36.735Z,26.80
2019-04-01T16:43:05.963Z,29.27
2019-04-01T16:45:35.300Z,31.17
2019-04-01T16:48:04.578Z,30.60
2019-04-01T16:50:34.358Z,44.08
2019-04-01T16:53:04.995Z,45.43
2019-04-01T16:55:34.239Z,33.28
2019-04-01T16:58:03.561Z,35.05
2019-04-01T17:00:32.738Z,32.58
2019-04-01T17:03:01.985Z,29.05
2019-04-01T17:05:34.111Z,28.38
2019-04-01T17:08:03.287Z,28.85
2019-04-01T17:10:33.215Z,27.42
2019-04-01T17:13:02.820Z,31.17
2019-04-01T17:15:32.006Z,27.42
2019-04-01T17:18:01.171Z,26.95
2019-04-01T17:20:30.395Z,26.80
2019-04-01T17:23:00.201Z,29.07
2019-04-01T17:25:30.256Z,29.18
2019-04-01T17:27:59.439Z,29.90
2019-04-01T17:30:28.661Z,30.08
2019-04-01T17:32:57.903Z,26.95
2019-04-01T17:35:27.136Z,28.40
2019-04-01T17:37:56.320Z,28.55
2019-04-01T17:40:25.488Z,29.37
2019-04-01T17:42:54.648Z,26.65
2019-04-01T17:45:29.914Z,28.92
2019-04-01T17:48:00.672Z,31.93
2019-04-01T17:50:30.966Z,29.45
2019-04-01T17:53:00.177Z,28.23
2019-04-01T17:55:29.371Z,29.85
2019-04-01T17:57:58.604Z,28.57
2019-04-01T18:00:29.565Z,29.15
2019-04-01T18:02:58.733Z,30.85
2019-04-01T18:05:27.986Z,33.63
2019-04-01T18:07:57.165Z,33.53
2019-04-01T18:10:28.122Z,31.42
2019-04-01T18:12:57.955Z,29.72
2019-04-01T18:15:27.219Z,28.75
2019-04-01T18:17:56.450Z,28.73
2019-04-01T18:20:25.716Z,28.65
2019-04-01T18:22:55.086Z,29.27
2019-04-01T18:25:24.371Z,30.90
2019-04-01T18:27:55.064Z,31.82
2019-04-01T18:30:24.275Z,30.55
2019-04-01T18:32:55.291Z,33.83
2019-04-01T18:35:25.407Z,31.30
2019-04-01T18:37:56.110Z,31.48
2019-04-01T18:40:32.764Z,32.13
2019-04-01T18:42:56.228Z,33.80
2019-04-01T18:45:25.427Z,33.88
2019-04-01T18:47:54.606Z,34.98
2019-04-01T18:50:23.835Z,29.15
2019-04-01T18:52:53.138Z,31.35
2019-04-01T18:55:22.305Z,31.33
2019-04-01T18:57:51.577Z,31.45
2019-04-01T19:00:21.406Z,31.95
2019-04-01T19:02:50.653Z,33.10
2019-04-01T19:05:19.822Z,33.85
2019-04-01T19:07:49.026Z,32.48
2019-04-01T19:10:18.299Z,31.40
2019-04-01T19:12:47.598Z,33.78
2019-04-01T19:15:17.951Z,33.23
2019-04-01T19:17:47.202Z,33.33
2019-04-01T19:20:16.370Z,35.83
2019-04-01T19:22:45.551Z,32.67
2019-04-01T19:25:14.712Z,33.08
2019-04-01T19:27:44.073Z,31.95
2019-04-01T19:30:14.720Z,28.42
2019-04-01T19:32:44.206Z,33.05
2019-04-01T19:35:13.469Z,30.20
2019-04-01T19:37:42.657Z,33.83
2019-04-01T19:40:13.564Z,29.02
2019-04-01T19:42:42.764Z,28.62
2019-04-01T19:45:12.830Z,30.20
2019-04-01T19:47:42.022Z,28.42
2019-04-01T19:50:11.330Z,29.52
2019-04-01T19:52:44.226Z,28.25
2019-04-01T19:55:12.554Z,28.87
2019-04-01T19:57:41.940Z,27.80
2019-04-01T20:00:11.253Z,31.33
2019-04-01T20:02:41.695Z,28.75
2019-04-01T20:05:11.002Z,34.10
2019-04-01T20:07:40.232Z,28.90
2019-04-01T20:10:09.445Z,30.80
2019-04-01T20:12:38.671Z,31.87
2019-04-01T20:15:11.829Z,30.45
2019-04-01T20:17:40.528Z,30.60
2019-04-01T20:20:09.709Z,26.97
2019-04-01T20:22:38.936Z,31.07
2019-04-01T20:25:09.283Z,28.25
2019-04-01T20:27:38.584Z,30.27
2019-04-01T20:30:09.355Z,32.10
2019-04-01T20:32:39.014Z,29.80
2019-04-01T20:35:08.248Z,30.43
2019-04-01T20:37:37.466Z,28.20
2019-04-01T20:40:06.816Z,28.98
2019-04-01T20:42:36.021Z,30.65
2019-04-01T20:45:10.702Z,27.45
2019-04-01T20:47:38.944Z,29.85
2019-04-01T20:50:11.361Z,34.85
2019-04-01T20:52:41.933Z,28.47
2019-04-01T20:55:11.121Z,28.47
2019-04-01T20:57:40.348Z,31.20
2019-04-01T21:00:09.924Z,27.80
2019-04-01T21:02:40.813Z,28.27
2019-04-01T21:05:09.977Z,28.05
2019-04-01T21:07:39.204Z,26.68
2019-04-01T21:10:08.373Z,28.55
2019-04-01T21:12:37.815Z,29.37
2019-04-01T21:15:07.257Z,30.15
2019-04-01T21:17:36.464Z,29.18
2019-04-01T21:20:06.843Z,28.55
2019-04-01T21:22:36.925Z,32.63
2019-04-01T21:25:07.620Z,28.98
2019-04-01T21:27:36.874Z,33.45
2019-04-01T21:30:09.075Z,132.18
2019-04-01T21:32:38.253Z,27.30
2019-04-01T21:35:09.054Z,31.80
2019-04-01T21:37:38.434Z,29.87
2019-04-01T21:40:07.689Z,30.12
2019-04-01T21:42:37.019Z,29.80
2019-04-01T21:45:07.005Z,29.30
2019-04-01T21:47:36.181Z,31.50
2019-04-01T21:50:06.424Z,31.77
2019-04-01T21:52:36.130Z,27.73
2019-04-01T21:55:08.051Z,31.60
2019-04-01T21:57:36.539Z,32.85
2019-04-01T22:00:10.078Z,29.57
2019-04-01T22:02:40.957Z,29.30
2019-04-01T22:05:10.776Z,32.60
2019-04-01T22:07:40.113Z,29.87
2019-04-01T22:10:09.343Z,30.20
2019-04-01T22:12:38.505Z,28.95
2019-04-01T22:15:07.716Z,28.07
2019-04-01T22:17:37.059Z,29.65
2019-04-01T22:20:06.621Z,30.00
2019-04-01T22:22:36.148Z,29.45
2019-04-01T22:25:06.489Z,27.85
2019-04-01T22:27:35.681Z,28.65
2019-04-01T22:30:06.836Z,29.42
2019-04-01T22:32:35.995Z,29.63
2019-04-01T22:35:08.014Z,28.45
2019-04-01T22:37:37.422Z,32.33
2019-04-01T22:40:07.029Z,33.55
2019-04-01T22:42:36.174Z,29.60
2019-04-01T22:45:06.494Z,29.25
2019-04-01T22:47:35.696Z,29.42
2019-04-01T22:50:07.658Z,25.97
2019-04-01T22:52:36.877Z,28.85
2019-04-01T22:55:06.126Z,29.00
2019-04-01T22:57:35.329Z,31.02
2019-04-01T23:00:05.510Z,26.35
2019-04-01T23:02:36.541Z,28.38
2019-04-01T23:05:08.293Z,34.48
2019-04-01T23:07:37.233Z,29.27
2019-04-01T23:10:07.752Z,30.80
2019-04-01T23:12:36.917Z,28.27
2019-04-01T23:15:07.812Z,29.30
2019-04-01T23:17:38.215Z,29.50
2019-04-01T23:20:07.934Z,30.23
2019-04-01T23:22:37.178Z,29.12
2019-04-01T23:25:06.446Z,29.60
2019-04-01T23:27:35.638Z,30.72
2019-04-01T23:30:09.385Z,30.50
2019-04-01T23:32:41.490Z,33.73
2019-04-01T23:35:12.365Z,31.17
2019-04-01T23:37:41.825Z,33.02
2019-04-01T23:40:11.013Z,31.70
2019-04-01T23:42:40.227Z,30.37
2019-04-01T23:45:09.515Z,36.20
2019-04-01T23:47:38.695Z,33.33
2019-04-01T23:50:09.821Z,36.17
2019-04-01T23:52:39.133Z,37.20
2019-04-01T23:55:08.361Z,35.68
2019-04-01T23:57:37.531Z,36.03
